.
WxDataArchive / Data Records for 2014-11-13
2014-11-12 November 2014 2014-11-14

Data Records for Thursday, 13 November 2014

Time	Temp	Chill	HIndex	Humid	Dewpt	 Wind 	HiWind	WindDir	Rain 	Barom
-----	----	-----	------	-----	-----	------	------	-------	-----	-----
00:00	28.8	28.8	28.8	68	19.6	0	1	292	0.00	30.252 
00:05	28.8	28.8	28.8	68	19.6	0	1	292	0.00	30.252 
00:10	28.7	28.7	28.7	67	19.2	0	3	292	0.00	30.252 
00:15	28.5	28.5	28.5	68	19.3	1	4	292	0.00	30.248 
00:20	28.4	28.4	28.4	69	19.5	1	4	292	0.00	30.248 
00:25	28.2	28.2	28.2	70	19.7	1	4	292	0.00	30.248 
00:30	28.2	28.2	28.2	72	20.4	0	3	292	0.00	30.254 
00:35	28.1	28.1	28.1	73	20.6	1	3	292	0.00	30.254 
00:40	27.9	27.9	27.9	74	20.7	1	3	292	0.00	30.254 
00:45	27.8	27.8	27.8	76	21.2	0	3	292	0.00	30.251 
00:50	27.6	27.6	27.6	78	21.7	1	3	292	0.00	30.251 
00:55	27.6	27.6	27.6	80	22.3	0	2	292	0.00	30.251 
01:00	27.5	27.5	27.5	81	22.4	0	2	292	0.00	30.255 
01:05	27.3	27.3	27.3	82	22.5	0	2	292	0.00	30.255 
01:10	27.2	27.2	27.2	83	22.7	0	1	292	0.00	30.255 
01:15	27.2	27.2	27.2	84	23.0	0	1	292	0.00	30.250 
01:20	27.0	27.0	27.0	84	22.8	0	1	292	0.00	30.250 
01:25	27.0	27.0	27.0	85	23.1	0	1	292	0.00	30.250 
01:30	27.0	27.0	27.0	85	23.1	0	1	292	0.00	30.250 
01:35	26.7	26.7	26.7	85	22.8	1	3	292	0.00	30.250 
01:40	26.6	26.6	26.6	85	22.7	1	3	292	0.00	30.250 
01:45	26.6	26.6	26.6	86	23.0	0	2	292	0.00	30.251 
01:50	26.4	26.4	26.4	86	22.8	0	2	292	0.00	30.251 
01:55	26.4	26.4	26.4	86	22.8	0	1	292	0.00	30.251 
02:00	26.6	26.6	26.6	86	23.0	0	2	292	0.00	30.251 
02:05	26.4	26.4	26.4	86	22.8	1	3	292	0.00	30.251 
02:10	26.3	26.3	26.3	86	22.7	0	1	292	0.00	30.251 
02:15	26.1	26.1	26.1	86	22.5	0	2	292	0.00	30.253 
02:20	26.1	26.1	26.1	86	22.5	0	2	292	0.00	30.253 
02:25	26.1	26.1	26.1	86	22.5	0	1	292	0.00	30.253 
02:30	26.1	26.1	26.1	86	22.5	0	2	292	0.00	30.256 
02:35	26.0	26.0	26.0	86	22.4	0	2	292	0.00	30.256 
02:40	26.0	26.0	26.0	86	22.4	0	3	292	0.00	30.256 
02:45	25.8	25.8	25.8	86	22.2	0	2	292	0.00	30.256 
02:50	26.0	26.0	26.0	85	22.1	0	1	292	0.00	30.256 
02:55	25.8	25.8	25.8	85	21.9	0	2	292	0.00	30.256 
03:00	25.7	25.7	25.7	84	21.5	1	4	270	0.00	30.251 
03:05	25.7	25.7	25.7	84	21.5	0	3	270	0.00	30.251 
03:10	25.6	25.6	25.6	84	21.5	1	3	270	0.00	30.251 
03:15	25.7	25.7	25.7	84	21.5	0	2	270	0.00	30.246 
03:20	25.6	25.6	25.6	83	21.2	0	2	270	0.00	30.246 
03:25	25.7	25.7	25.7	83	21.3	0	2	270	0.00	30.246 
03:30	25.6	25.6	25.6	83	21.2	0	3	270	0.00	30.253 
03:35	25.6	25.6	25.6	82	20.9	0	3	270	0.00	30.253 
03:40	25.4	25.4	25.4	82	20.7	0	2	270	0.00	30.253 
03:45	25.4	25.4	25.4	81	20.4	0	1	270	0.00	30.253 
03:50	25.4	25.4	25.4	81	20.4	0	3	270	0.00	30.253 
03:55	25.4	25.4	25.4	81	20.4	0	2	270	0.00	30.253 
04:00	25.4	25.4	25.4	81	20.4	1	2	270	0.00	30.251 
04:05	25.4	25.4	25.4	80	20.1	0	2	270	0.00	30.251 
04:10	25.4	25.4	25.4	80	20.1	0	2	270	0.00	30.251 
04:15	25.3	25.3	25.3	80	20.0	0	2	270	0.00	30.242 
04:20	25.3	25.3	25.3	79	19.7	1	3	270	0.00	30.242 
04:25	25.3	25.3	25.3	79	19.7	0	3	270	0.00	30.242 
04:30	25.1	25.1	25.1	79	19.5	0	2	270	0.00	30.240 
04:35	25.1	25.1	25.1	79	19.5	0	2	270	0.00	30.240 
04:40	25.1	25.1	25.1	79	19.5	1	3	270	0.00	30.240 
04:45	25.0	25.0	25.0	77	18.8	1	4	292	0.00	30.240 
04:50	25.0	25.0	25.0	76	18.5	1	4	292	0.00	30.240 
04:55	24.8	24.8	24.8	75	18.0	1	3	292	0.00	30.240 
05:00	24.8	24.8	24.8	74	17.7	0	1	292	0.00	30.240 
05:05	24.7	24.7	24.7	75	17.9	0	2	292	0.00	30.240 
05:10	24.7	24.7	24.7	74	17.6	0	3	292	0.00	30.240 
05:15	24.7	24.7	24.7	75	17.9	0	1	292	0.00	30.238 
05:20	24.7	24.7	24.7	75	17.9	1	3	292	0.00	30.238 
05:25	24.7	24.7	24.7	75	17.9	0	2	292	0.00	30.238 
05:30	24.7	24.7	24.7	74	17.6	0	2	292	0.00	30.238 
05:35	24.7	24.7	24.7	75	17.9	0	2	292	0.00	30.238 
05:40	24.7	24.7	24.7	75	17.9	0	3	292	0.00	30.238 
05:45	24.7	24.7	24.7	75	17.9	1	3	292	0.00	30.237 
05:50	24.7	24.7	24.7	75	17.9	0	1	292	0.00	30.237 
05:55	24.7	24.7	24.7	75	17.9	0	1	292	0.00	30.237 
06:00	24.7	24.7	24.7	75	17.9	1	3	292	0.00	30.238 
06:05	24.7	24.7	24.7	75	17.9	0	2	292	0.00	30.238 
06:10	24.7	24.7	24.7	75	17.9	1	2	292	0.00	30.238 
06:15	24.7	24.7	24.7	75	17.9	0	2	292	0.00	30.235 
06:20	24.7	24.7	24.7	75	17.9	1	3	292	0.00	30.235 
06:25	24.7	24.7	24.7	75	17.9	0	3	292	0.00	30.235 
06:30	24.8	24.8	24.8	75	18.0	1	3	292	0.00	30.238 
06:35	24.8	24.8	24.8	75	18.0	0	2	292	0.00	30.238 
06:40	24.8	24.8	24.8	75	18.0	0	1	292	0.00	30.238 
06:45	24.8	24.8	24.8	76	18.3	0	1	292	0.00	30.230 
06:50	24.8	24.8	24.8	76	18.3	0	2	292	0.00	30.230 
06:55	24.8	24.8	24.8	76	18.3	0	2	292	0.00	30.230 
07:00	24.8	24.8	24.8	76	18.3	0	2	292	0.00	30.236 
07:05	24.8	24.8	24.8	76	18.3	0	2	292	0.00	30.236 
07:10	25.0	25.0	25.0	76	18.5	1	3	292	0.00	30.236 
07:15	25.0	25.0	25.0	75	18.2	0	2	292	0.00	30.238 
07:20	25.0	25.0	25.0	76	18.5	0	2	292	0.00	30.238 
07:25	25.0	25.0	25.0	76	18.5	0	2	292	0.00	30.238 
07:30	25.0	25.0	25.0	76	18.5	0	2	292	0.00	30.239 
07:35	25.0	25.0	25.0	76	18.5	1	2	292	0.00	30.239 
07:40	25.1	25.1	25.1	75	18.3	0	3	292	0.00	30.239 
07:45	25.1	25.1	25.1	76	18.6	0	3	292	0.00	30.242 
07:50	25.1	25.1	25.1	75	18.3	1	3	292	0.00	30.242 
07:55	25.1	25.1	25.1	76	18.6	1	3	292	0.00	30.242 
08:00	25.1	25.1	25.1	75	18.3	1	3	292	0.00	30.247 
08:05	25.1	25.1	25.1	76	18.6	0	1	292	0.00	30.247 
08:10	25.1	25.1	25.1	75	18.3	1	4	292	0.00	30.247 
08:15	25.1	25.1	25.1	75	18.3	1	3	292	0.00	30.253 
08:20	25.1	25.1	25.1	75	18.3	1	4	270	0.00	30.253 
08:25	25.3	25.3	25.3	75	18.5	1	3	270	0.00	30.253 
08:30	25.3	25.3	25.3	75	18.5	0	2	270	0.00	30.249 
08:35	25.3	25.3	25.3	75	18.5	1	3	270	0.00	30.249 
08:40	25.4	25.4	25.4	75	18.6	1	3	270	0.00	30.249 
08:45	25.4	25.4	25.4	75	18.6	1	4	270	0.00	30.253 
08:50	25.6	25.6	25.6	75	18.8	1	4	270	0.00	30.253 
08:55	25.6	25.6	25.6	74	18.5	2	4	270	0.00	30.253 
09:00	25.6	25.6	25.6	74	18.5	2	5	270	0.00	30.255 
09:05	25.7	25.7	25.7	74	18.6	2	5	270	0.00	30.255 
09:10	25.7	25.7	25.7	74	18.6	1	3	270	0.00	30.255 
09:15	25.8	25.8	25.8	74	18.7	1	3	270	0.00	30.252 
09:20	25.8	25.8	25.8	73	18.4	2	5	270	0.00	30.252 
09:25	25.7	25.7	25.7	73	18.3	1	4	292	0.00	30.252 
09:30	25.7	25.7	25.7	73	18.3	1	4	292	0.00	30.251 
09:35	25.8	25.8	25.8	73	18.4	2	5	270	0.00	30.251 
09:40	26.0	26.0	26.0	73	18.6	1	5	270	0.00	30.251 
09:45	26.0	26.0	26.0	73	18.6	2	3	315	0.00	30.253 
09:50	26.1	26.1	26.1	73	18.7	1	3	315	0.00	30.253 
09:55	26.3	26.3	26.3	73	18.8	1	2	315	0.00	30.253 
10:00	26.7	26.7	26.7	74	19.5	1	3	315	0.00	30.247 
10:05	27.2	27.2	27.2	73	19.7	2	4	270	0.00	30.247 
10:10	27.5	27.5	27.5	72	19.7	2	5	270	0.00	30.247 
10:15	27.6	27.6	27.6	72	19.8	2	5	270	0.00	30.247 
10:20	27.9	27.9	27.9	71	19.7	2	5	292	0.00	30.247 
10:25	28.5	28.5	28.5	72	20.6	1	4	270	0.00	30.247 
10:30	28.8	28.8	28.8	71	20.6	2	5	270	0.00	30.247 
10:35	29.0	29.0	29.0	71	20.8	2	4	270	0.00	30.247 
10:40	29.1	29.1	29.1	71	20.9	3	5	270	0.00	30.247 
10:45	29.0	29.0	29.0	72	21.1	3	5	270	0.00	30.249 
10:50	28.8	28.8	28.8	72	20.9	3	6	292	0.00	30.249 
10:55	28.8	28.8	28.8	72	20.9	3	6	315	0.00	30.249 
11:00	29.0	29.0	29.0	73	21.4	3	5	315	0.00	30.249 
11:05	28.7	24.3	28.7	73	21.2	4	7	270	0.00	30.249 
11:10	28.4	28.4	28.4	73	20.9	3	6	270	0.00	30.249 
11:15	28.4	28.4	28.4	73	20.9	3	5	270	0.00	30.251 
11:20	28.4	23.9	28.4	74	21.2	4	7	315	0.00	30.251 
11:25	28.7	28.7	28.7	73	21.2	3	6	292	0.00	30.251 
11:30	28.8	28.8	28.8	73	21.3	3	7	292	0.00	30.248 
11:35	28.8	28.8	28.8	73	21.3	2	5	315	0.00	30.248 
11:40	29.0	29.0	29.0	73	21.4	3	7	270	0.00	30.248 
11:45	28.8	28.8	28.8	71	20.6	3	6	270	0.00	30.242 
11:50	28.8	28.8	28.8	72	20.9	2	5	315	0.00	30.242 
11:55	29.0	29.0	29.0	71	20.8	3	6	270	0.00	30.242 
12:00	29.0	29.0	29.0	71	20.8	3	6	292	0.00	30.236 
12:05	28.8	24.4	28.8	70	20.3	4	6	292	0.00	30.236 
12:10	28.8	28.8	28.8	70	20.3	2	6	315	0.00	30.236 
12:15	29.1	29.1	29.1	71	20.9	1	4	270	0.00	30.235 
12:20	29.0	29.0	29.0	69	20.1	3	6	315	0.00	30.235 
12:25	29.1	29.1	29.1	69	20.2	2	6	292	0.00	30.235 
12:30	29.3	29.3	29.3	68	20.1	2	5	292	0.00	30.234 
12:35	29.4	29.4	29.4	67	19.8	2	5	270	0.00	30.234 
12:40	29.5	29.5	29.5	67	19.9	1	5	270	0.00	30.234 
12:45	29.5	29.5	29.5	66	19.6	2	5	270	0.00	30.229 
12:50	29.8	29.8	29.8	67	20.2	1	5	270	0.00	30.229 
12:55	30.1	30.1	30.1	67	20.5	2	4	270	0.00	30.229 
13:00	30.1	30.1	30.1	66	20.1	2	4	270	0.00	30.221 
13:05	30.1	30.1	30.1	65	19.8	2	4	270	0.00	30.221 
13:10	30.3	30.3	30.3	65	20.0	1	3	270	0.00	30.221 
13:15	30.1	30.1	30.1	64	19.4	3	5	270	0.00	30.220 
13:20	30.0	30.0	30.0	65	19.7	3	6	270	0.00	30.220 
13:25	29.8	29.8	29.8	66	19.8	2	6	270	0.00	30.220 
13:30	29.7	29.7	29.7	67	20.1	1	3	270	0.00	30.218 
13:35	30.4	30.4	30.4	67	20.8	1	4	270	0.00	30.218 
13:40	31.0	31.0	31.0	63	19.9	2	6	270	0.00	30.218 
13:45	30.6	30.6	30.6	65	20.3	3	7	270	0.00	30.219 
13:50	29.8	29.8	29.8	67	20.2	3	6	270	0.00	30.219 
13:55	29.5	29.5	29.5	69	20.6	3	6	270	0.00	30.219 
14:00	29.4	29.4	29.4	69	20.5	2	5	270	0.00	30.220 
14:05	29.7	29.7	29.7	68	20.5	2	5	270	0.00	30.220 
14:10	29.8	29.8	29.8	66	19.8	2	5	292	0.00	30.220 
14:15	30.1	30.1	30.1	66	20.1	1	5	292	0.00	30.219 
14:20	30.0	30.0	30.0	65	19.7	3	7	270	0.00	30.219 
14:25	30.0	30.0	30.0	65	19.7	2	7	270	0.00	30.219 
14:30	30.3	30.3	30.3	65	20.0	2	4	270	0.00	30.219 
14:35	30.3	30.3	30.3	64	19.6	2	4	292	0.00	30.219 
14:40	30.6	30.6	30.6	63	19.5	2	5	292	0.00	30.219 
14:45	30.4	30.4	30.4	64	19.7	2	7	270	0.00	30.220 
14:50	29.8	29.8	29.8	68	20.5	3	6	292	0.00	30.220 
14:55	29.1	29.1	29.1	73	21.5	2	6	315	0.00	30.220 
15:00	28.7	28.7	28.7	74	21.5	2	5	270	0.00	30.222 
15:05	28.7	28.7	28.7	72	20.8	3	6	270	0.00	30.222 
15:10	29.0	29.0	29.0	69	20.1	3	6	270	0.00	30.222 
15:15	29.1	29.1	29.1	69	20.2	1	6	315	0.00	30.222 
15:20	29.4	29.4	29.4	69	20.5	2	4	248	0.00	30.222 
15:25	29.7	29.7	29.7	68	20.5	1	4	248	0.00	30.222 
15:30	29.8	29.8	29.8	67	20.2	2	4	248	0.00	30.222 
15:35	29.8	29.8	29.8	64	19.1	3	6	292	0.00	30.222 
15:40	30.0	30.0	30.0	62	18.6	2	5	292	0.00	30.222 
15:45	30.0	30.0	30.0	58	17.0	3	5	270	0.00	30.224 
15:50	30.0	30.0	30.0	57	16.6	3	5	270	0.00	30.224 
15:55	30.0	30.0	30.0	55	15.8	3	7	270	0.00	30.224 
16:00	30.1	30.1	30.1	55	15.9	2	5	270	0.00	30.224 
16:05	30.3	30.3	30.3	55	16.1	2	5	270	0.00	30.224 
16:10	30.3	30.3	30.3	52	14.8	2	5	270	0.00	30.224 
16:15	30.1	30.1	30.1	56	16.3	2	5	270	0.00	30.230 
16:20	30.0	30.0	30.0	57	16.6	2	6	270	0.00	30.230 
16:25	29.8	29.8	29.8	58	16.8	3	9	315	0.00	30.230 
16:30	29.7	29.7	29.7	58	16.8	3	7	315	0.00	30.235 
16:35	29.7	29.7	29.7	59	17.1	2	5	270	0.00	30.235 
16:40	29.5	29.5	29.5	59	17.0	3	6	270	0.00	30.235 
16:45	29.5	29.5	29.5	60	17.3	1	4	270	0.00	30.237 
16:50	29.5	29.5	29.5	59	17.0	2	6	270	0.00	30.237 
16:55	29.4	29.4	29.4	58	16.5	3	5	270	0.00	30.237 
17:00	29.4	29.4	29.4	57	16.1	2	5	270	0.00	30.238 
17:05	29.3	29.3	29.3	58	16.4	2	4	292	0.00	30.238 
17:10	29.3	29.3	29.3	58	16.4	1	3	292	0.00	30.238 
17:15	29.1	29.1	29.1	58	16.2	1	3	270	0.00	30.240 
17:20	29.1	29.1	29.1	59	16.6	1	4	270	0.00	30.240 
17:25	29.0	29.0	29.0	58	16.1	3	5	292	0.00	30.240 
17:30	29.0	29.0	29.0	58	16.1	3	5	292	0.00	30.242 
17:35	28.8	28.8	28.8	58	15.9	2	5	270	0.00	30.242 
17:40	28.7	28.7	28.7	59	16.2	2	5	315	0.00	30.242 
17:45	28.5	28.5	28.5	59	16.0	2	4	270	0.00	30.245 
17:50	28.4	28.4	28.4	59	15.9	1	4	292	0.00	30.245 
17:55	28.2	28.2	28.2	60	16.1	1	3	292	0.00	30.245 
18:00	28.2	28.2	28.2	61	16.5	2	4	292	0.00	30.252 
18:05	28.1	28.1	28.1	61	16.4	1	3	292	0.00	30.252 
18:10	27.9	27.9	27.9	62	16.6	2	4	248	0.00	30.252 
18:15	27.8	27.8	27.8	62	16.5	1	3	270	0.00	30.255 
18:20	27.6	27.6	27.6	62	16.3	2	5	270	0.00	30.255 
18:25	27.6	27.6	27.6	63	16.7	1	3	270	0.00	30.255 
18:30	27.5	27.5	27.5	63	16.6	2	4	270	0.00	30.258 
18:35	27.5	27.5	27.5	63	16.6	1	4	270	0.00	30.258 
18:40	27.3	27.3	27.3	63	16.4	1	2	270	0.00	30.258 
18:45	27.2	27.2	27.2	64	16.7	0	2	270	0.00	30.264 
18:50	27.0	27.0	27.0	64	16.5	1	3	270	0.00	30.264 
18:55	26.9	26.9	26.9	64	16.4	1	4	270	0.00	30.264 
19:00	26.9	26.9	26.9	64	16.4	2	7	270	0.00	30.270 
19:05	26.7	26.7	26.7	64	16.2	1	4	292	0.00	30.270 
19:10	26.7	26.7	26.7	65	16.5	1	4	292	0.00	30.270 
19:15	26.6	26.6	26.6	65	16.4	2	4	292	0.00	30.272 
19:20	26.6	26.6	26.6	65	16.4	1	2	292	0.00	30.272 
19:25	26.4	26.4	26.4	65	16.3	0	2	292	0.00	30.272 
19:30	26.3	26.3	26.3	65	16.2	0	1	292	0.00	30.274 
19:35	26.1	26.1	26.1	66	16.3	0	2	292	0.00	30.274 
19:40	26.1	26.1	26.1	67	16.7	1	3	292	0.00	30.274 
19:45	26.1	26.1	26.1	67	16.7	0	2	292	0.00	30.277 
19:50	26.1	26.1	26.1	67	16.7	1	3	292	0.00	30.277 
19:55	26.3	26.3	26.3	67	16.9	1	4	248	0.00	30.277 
20:00	26.3	26.3	26.3	66	16.5	2	4	248	0.00	30.278 
20:05	26.4	26.4	26.4	66	16.6	1	5	248	0.00	30.278 
20:10	26.4	26.4	26.4	65	16.3	2	5	270	0.00	30.278 
20:15	26.4	26.4	26.4	65	16.3	1	3	270	0.00	30.277 
20:20	26.4	26.4	26.4	64	15.9	1	5	292	0.00	30.277 
20:25	26.4	26.4	26.4	64	15.9	1	4	292	0.00	30.277 
20:30	26.4	26.4	26.4	63	15.5	2	4	292	0.00	30.283 
20:35	26.4	26.4	26.4	64	15.9	1	3	248	0.00	30.283 
20:40	26.4	26.4	26.4	64	15.9	1	3	248	0.00	30.283 
20:45	26.4	26.4	26.4	64	15.9	1	3	248	0.00	30.285 
20:50	26.4	26.4	26.4	64	15.9	1	3	248	0.00	30.285 
20:55	26.4	26.4	26.4	64	15.9	1	3	248	0.00	30.285 
21:00	26.4	26.4	26.4	64	15.9	1	2	248	0.00	30.285 
21:05	26.3	26.3	26.3	64	15.8	0	2	248	0.00	30.285 
21:10	26.3	26.3	26.3	64	15.8	1	3	248	0.00	30.285 
21:15	26.3	26.3	26.3	65	16.2	1	3	248	0.00	30.283 
21:20	26.3	26.3	26.3	65	16.2	1	3	248	0.00	30.283 
21:25	26.3	26.3	26.3	64	15.8	1	4	248	0.00	30.283 
21:30	26.3	26.3	26.3	65	16.2	1	4	292	0.00	30.281 
21:35	26.1	26.1	26.1	64	15.6	1	3	292	0.00	30.281 
21:40	26.1	26.1	26.1	64	15.6	1	4	292	0.00	30.281 
21:45	26.0	26.0	26.0	64	15.5	1	3	270	0.00	30.281 
21:50	26.0	26.0	26.0	65	15.9	1	4	270	0.00	30.281 
21:55	26.0	26.0	26.0	65	15.9	1	4	270	0.00	30.281 
22:00	26.0	26.0	26.0	65	15.9	1	3	270	0.00	30.276 
22:05	26.0	26.0	26.0	65	15.9	1	4	270	0.00	30.276 
22:10	25.8	25.8	25.8	66	16.0	1	3	270	0.00	30.276 
22:15	25.7	25.7	25.7	66	15.9	0	2	270	0.00	30.273 
22:20	25.6	25.6	25.6	67	16.2	0	2	270	0.00	30.273 
22:25	25.4	25.4	25.4	67	16.0	1	2	270	0.00	30.273 
22:30	25.3	25.3	25.3	68	16.2	1	3	270	0.00	30.271 
22:35	25.3	25.3	25.3	69	16.6	0	3	270	0.00	30.271 
22:40	25.1	25.1	25.1	69	16.4	0	2	270	0.00	30.271 
22:45	25.0	25.0	25.0	69	16.3	0	2	270	0.00	30.272 
22:50	25.0	25.0	25.0	70	16.6	1	3	270	0.00	30.272 
22:55	24.8	24.8	24.8	70	16.4	0	2	270	0.00	30.272 
23:00	24.7	24.7	24.7	71	16.7	0	2	270	0.00	30.270 
23:05	24.7	24.7	24.7	71	16.7	0	1	270	0.00	30.270 
23:10	24.5	24.5	24.5	72	16.8	0	2	270	0.00	30.270 
23:15	24.4	24.4	24.4	72	16.7	0	2	270	0.00	30.272 
23:20	24.4	24.4	24.4	72	16.7	0	3	270	0.00	30.272 
23:25	24.2	24.2	24.2	72	16.5	1	3	270	0.00	30.272 
23:30	24.2	24.2	24.2	72	16.5	1	4	270	0.00	30.272 
23:35	24.2	24.2	24.2	72	16.5	0	3	270	0.00	30.272 
23:40	24.2	24.2	24.2	73	16.8	1	3	270	0.00	30.272 
23:45	24.1	24.1	24.1	73	16.7	0	2	270	0.00	30.271 
23:50	24.1	24.1	24.1	73	16.7	0	2	270	0.00	30.271 
23:55	23.9	23.9	23.9	73	16.5	0	1	270	0.00	30.271 

CoCoRaHS
IN-AL-39
A2 Web Hosting
Creative Commons License
GoDaddy
search engine by freefind advanced

loaded 2018-11-20 09:11:23 • last modified 2010-11-18 10:43:29
Privacy PolicyDisclaimer
• wx.awcolley.com is powered by PmWiki v.2002016 •
• all content (unless otherwise noted) © 2018 A W Colley